createdAt,value
2023-03-04T00:03:22.387Z,1.47
2023-03-04T00:08:44.265Z,1.53
2023-03-04T00:14:06.085Z,1.56
2023-03-04T00:19:28.117Z,1.61
2023-03-04T00:24:50.081Z,1.65
2023-03-04T00:30:14.586Z,1.69
2023-03-04T00:35:37.427Z,1.75
2023-03-04T00:41:01.257Z,1.78
2023-03-04T00:46:24.238Z,1.75
2023-03-04T00:51:48.478Z,1.62
2023-03-04T00:57:10.344Z,1.51
2023-03-04T01:02:32.275Z,1.42
2023-03-04T01:07:56.214Z,1.33
2023-03-04T01:13:18.743Z,1.33
2023-03-04T01:18:40.674Z,1.26
2023-03-04T01:24:04.323Z,1.22
2023-03-04T01:29:27.287Z,1.16
2023-03-04T01:34:51.084Z,1.08
2023-03-04T01:40:16.523Z,0.95
2023-03-04T01:45:40.266Z,0.89
2023-03-04T01:51:05.710Z,0.89
2023-03-04T01:56:35.452Z,0.91
2023-03-04T02:02:00.804Z,1.00
2023-03-04T02:07:22.683Z,1.02
2023-03-04T02:12:45.360Z,1.12
2023-03-04T02:18:22.113Z,1.19
2023-03-04T02:24:03.178Z,1.17
2023-03-04T02:29:25.275Z,1.13
2023-03-04T02:34:49.506Z,1.16
2023-03-04T02:40:24.174Z,1.18
2023-03-04T02:45:50.933Z,1.26
2023-03-04T02:51:13.053Z,1.17
2023-03-04T02:56:34.883Z,1.11
2023-03-04T03:01:57.006Z,1.13
2023-03-04T03:07:20.157Z,1.20
2023-03-04T03:12:42.397Z,1.24
2023-03-04T03:18:04.311Z,1.25
2023-03-04T03:23:29.348Z,1.21
2023-03-04T03:28:53.588Z,1.22
2023-03-04T03:34:16.517Z,1.27
2023-03-04T03:39:38.171Z,1.31
2023-03-04T03:45:00.121Z,1.33
2023-03-04T03:50:22.201Z,1.33
2023-03-04T03:55:45.926Z,1.43
2023-03-04T04:01:09.374Z,1.48
2023-03-04T04:06:31.105Z,1.40
2023-03-04T04:11:53.145Z,1.31
2023-03-04T04:17:15.563Z,1.30
2023-03-04T04:22:37.794Z,1.32
2023-03-04T04:27:59.935Z,1.32
2023-03-04T04:33:22.053Z,1.22
2023-03-04T04:38:44.079Z,1.11
2023-03-04T04:44:06.062Z,1.13
2023-03-04T04:49:30.344Z,1.11
2023-03-04T04:54:52.077Z,1.08
2023-03-04T05:00:14.505Z,1.18
2023-03-04T05:05:36.134Z,1.22
2023-03-04T05:10:58.672Z,1.20
2023-03-04T05:16:20.605Z,1.24
2023-03-04T05:21:42.736Z,1.26
2023-03-04T05:27:04.560Z,1.29
2023-03-04T05:32:26.912Z,1.24
2023-03-04T05:37:48.920Z,1.14
2023-03-04T05:43:11.253Z,1.10
2023-03-04T05:48:33.290Z,1.08
2023-03-04T05:53:57.721Z,1.03
2023-03-04T05:59:20.940Z,1.07
2023-03-04T06:04:45.596Z,1.05
2023-03-04T06:10:08.334Z,1.10
2023-03-04T06:15:31.266Z,1.15
2023-03-04T06:21:00.759Z,1.20
2023-03-04T06:26:25.620Z,1.20
2023-03-04T06:31:48.163Z,1.24
2023-03-04T06:37:09.917Z,1.16
2023-03-04T06:42:31.948Z,1.13
2023-03-04T06:47:57.080Z,1.15
2023-03-04T06:53:19.009Z,1.07
2023-03-04T06:58:40.942Z,1.08
2023-03-04T07:04:03.194Z,1.23
2023-03-04T07:09:25.200Z,1.37
2023-03-04T07:14:47.330Z,1.43
2023-03-04T07:20:10.260Z,1.51
2023-03-04T07:25:31.707Z,1.53
2023-03-04T07:30:53.822Z,1.49
2023-03-04T07:36:16.655Z,1.62
2023-03-04T07:41:38.990Z,1.72
2023-03-04T07:47:00.815Z,1.73
2023-03-04T07:52:22.847Z,1.62
2023-03-04T07:57:46.857Z,1.59
2023-03-04T08:03:08.513Z,1.59
2023-03-04T08:08:31.542Z,1.62
2023-03-04T08:13:54.529Z,1.64
2023-03-04T08:19:16.509Z,1.66
2023-03-04T08:24:38.530Z,1.64
2023-03-04T08:30:00.350Z,1.63
2023-03-04T08:35:24.563Z,1.58
2023-03-04T08:40:46.425Z,1.52
2023-03-04T08:46:08.680Z,1.53
2023-03-04T08:51:36.015Z,1.61
2023-03-04T08:56:57.743Z,1.62
2023-03-04T09:02:20.176Z,1.60
2023-03-04T09:07:41.997Z,1.61
2023-03-04T09:13:04.304Z,1.56
2023-03-04T09:18:27.261Z,1.63
2023-03-04T09:23:49.103Z,1.72
2023-03-04T09:29:11.019Z,1.71
2023-03-04T09:34:35.058Z,1.76
2023-03-04T09:39:57.290Z,1.74
2023-03-04T09:45:22.425Z,1.73
2023-03-04T09:51:09.243Z,1.76
2023-03-04T09:56:32.074Z,1.81
2023-03-04T10:01:56.106Z,1.89
2023-03-04T10:07:21.662Z,1.99
2023-03-04T10:12:46.691Z,2.00
2023-03-04T10:18:34.363Z,1.98
2023-03-04T10:23:59.438Z,1.99
2023-03-04T10:29:24.715Z,2.06
2023-03-04T10:34:47.208Z,2.00
2023-03-04T10:40:24.360Z,1.98
2023-03-04T10:45:46.942Z,1.99
2023-03-04T10:51:20.583Z,2.09
2023-03-04T10:56:45.935Z,2.09
2023-03-04T11:02:36.968Z,2.07
2023-03-04T11:08:00.405Z,2.12
2023-03-04T11:13:25.507Z,2.19
2023-03-04T11:18:50.871Z,2.29
2023-03-04T11:24:31.179Z,2.30
2023-03-04T11:30:02.732Z,2.26
2023-03-04T11:35:33.340Z,2.35
2023-03-04T11:40:59.451Z,2.42
2023-03-04T11:46:52.795Z,2.41
2023-03-04T11:52:50.158Z,2.35
2023-03-04T11:58:25.997Z,2.30
2023-03-04T12:03:54.874Z,2.30
2023-03-04T12:09:41.404Z,2.26
2023-03-04T12:15:08.349Z,2.34
2023-03-04T12:20:35.996Z,2.41
2023-03-04T12:26:13.898Z,2.40
2023-03-04T12:31:41.445Z,2.49
2023-03-04T12:37:36.573Z,2.54
2023-03-04T12:43:04.495Z,2.71
2023-03-04T12:48:37.291Z,2.91
2023-03-04T12:54:10.861Z,2.98
2023-03-04T12:59:47.141Z,3.10
2023-03-04T13:05:23.155Z,3.21
2023-03-04T13:10:45.149Z,3.29
2023-03-04T13:16:19.261Z,3.44
2023-03-04T13:21:46.690Z,3.55
2023-03-04T13:27:48.864Z,3.58
2023-03-04T13:33:13.688Z,3.68
2023-03-04T13:38:37.860Z,3.72
2023-03-04T13:44:06.687Z,3.76
2023-03-04T13:49:29.001Z,3.75
2023-03-04T13:54:50.828Z,3.83
2023-03-04T14:00:14.012Z,3.93
2023-03-04T14:05:35.992Z,3.90
2023-03-04T14:10:57.619Z,3.91
2023-03-04T14:16:21.470Z,3.99
2023-03-04T14:21:47.800Z,3.99
2023-03-04T14:27:14.462Z,4.03
2023-03-04T14:32:36.161Z,4.02
2023-03-04T14:38:00.018Z,4.08
2023-03-04T14:43:22.958Z,4.10
2023-03-04T14:48:52.243Z,4.07
2023-03-04T14:54:29.791Z,4.06
2023-03-04T14:59:54.609Z,4.02
2023-03-04T15:05:27.601Z,3.98
2023-03-04T15:11:02.172Z,4.00
2023-03-04T15:16:26.283Z,4.04
2023-03-04T15:21:48.354Z,4.03
2023-03-04T15:27:12.380Z,4.01
2023-03-04T15:32:34.438Z,3.95
2023-03-04T15:37:57.854Z,3.82
2023-03-04T15:43:22.274Z,3.69
2023-03-04T15:48:44.399Z,3.62
2023-03-04T15:54:09.401Z,3.58
2023-03-04T15:59:34.390Z,3.63
2023-03-04T16:04:56.399Z,3.60
2023-03-04T16:10:26.005Z,3.52
2023-03-04T16:15:49.265Z,3.48
2023-03-04T16:21:17.129Z,3.47
2023-03-04T16:26:38.889Z,3.45
2023-03-04T16:32:00.935Z,3.47
2023-03-04T16:37:23.332Z,3.47
2023-03-04T16:42:45.369Z,3.42
2023-03-04T16:48:07.499Z,3.47
2023-03-04T16:53:33.934Z,3.49
2023-03-04T16:58:55.976Z,3.52
2023-03-04T17:04:17.905Z,3.48
2023-03-04T17:09:41.671Z,3.42
2023-03-04T17:15:04.473Z,3.47
2023-03-04T17:20:26.395Z,3.55
2023-03-04T17:25:55.502Z,3.58
2023-03-04T17:31:19.738Z,3.66
2023-03-04T17:36:42.024Z,3.79
2023-03-04T17:42:04.456Z,3.94
2023-03-04T17:47:26.688Z,4.01
2023-03-04T17:52:48.319Z,4.03
2023-03-04T17:58:11.350Z,4.02
2023-03-04T18:03:33.376Z,4.07
2023-03-04T18:08:55.207Z,4.08
2023-03-04T18:14:17.445Z,4.19
2023-03-04T18:19:39.904Z,4.24
2023-03-04T18:25:02.104Z,4.26
2023-03-04T18:30:27.682Z,4.27
2023-03-04T18:35:50.492Z,4.32
2023-03-04T18:41:14.388Z,4.37
2023-03-04T18:46:44.432Z,4.39
2023-03-04T18:52:06.099Z,4.37
2023-03-04T18:57:28.130Z,4.37
2023-03-04T19:02:52.775Z,4.37
2023-03-04T19:08:14.510Z,4.43
2023-03-04T19:13:38.763Z,4.45
2023-03-04T19:19:00.364Z,4.43
2023-03-04T19:24:21.991Z,4.43
2023-03-04T19:29:43.922Z,4.44
2023-03-04T19:35:06.321Z,4.44
2023-03-04T19:40:28.686Z,4.44
2023-03-04T19:45:57.232Z,4.42
2023-03-04T19:51:20.666Z,4.40
2023-03-04T19:56:42.399Z,4.39
2023-03-04T20:02:04.826Z,4.35
2023-03-04T20:07:26.290Z,4.34
2023-03-04T20:12:48.446Z,4.35
2023-03-04T20:18:10.585Z,4.34
2023-03-04T20:23:32.748Z,4.25
2023-03-04T20:28:55.075Z,4.22
2023-03-04T20:34:17.114Z,4.19
2023-03-04T20:39:38.655Z,4.15
2023-03-04T20:45:00.870Z,4.12
2023-03-04T20:50:22.885Z,4.13
2023-03-04T20:55:45.030Z,4.20
2023-03-04T21:01:06.837Z,4.19
2023-03-04T21:06:29.524Z,4.23
2023-03-04T21:11:51.702Z,4.25
2023-03-04T21:17:16.175Z,4.22
2023-03-04T21:22:37.779Z,4.18
2023-03-04T21:27:59.917Z,3.79
2023-03-04T21:33:24.657Z,3.49
2023-03-04T21:38:46.783Z,3.42
2023-03-04T21:44:14.480Z,3.32
2023-03-04T21:49:45.196Z,3.33
2023-03-04T21:55:09.942Z,3.39
2023-03-04T22:00:32.476Z,3.46
2023-03-04T22:05:54.216Z,3.49
2023-03-04T22:11:16.889Z,3.57
2023-03-04T22:16:54.155Z,3.64
2023-03-04T22:22:19.216Z,3.70
2023-03-04T22:27:41.222Z,3.71
2023-03-04T22:33:04.045Z,3.71
2023-03-04T22:38:25.875Z,3.72
2023-03-04T22:43:48.811Z,3.70
2023-03-04T22:49:13.177Z,3.64
2023-03-04T22:54:34.875Z,3.63
2023-03-04T22:59:57.497Z,3.63
2023-03-04T23:05:21.283Z,3.62
2023-03-04T23:10:43.413Z,3.60
2023-03-04T23:16:08.222Z,3.58
2023-03-04T23:21:34.956Z,3.49
2023-03-04T23:26:56.877Z,3.44
2023-03-04T23:32:18.884Z,3.43
2023-03-04T23:37:42.453Z,3.42
2023-03-04T23:43:04.537Z,3.42
2023-03-04T23:48:26.603Z,3.32
2023-03-04T23:53:48.849Z,3.14
2023-03-04T23:59:12.084Z,3.13
